Time;durP1;ratioP1;P1;durP2;ratioP2;P2;SDS_P1;SDS_P2;PMS_P1;PMS_P2;Temp;Humidity;BMP_temperature;BMP_pressure;BME280_temperature;BME280_humidity;BME280_pressure;Samples;Min_cycle;Max_cycle;Signal;HPM_P1;HPM_P2
2022/01/28 00:02:37;;;;;;;10.83;3.27;;;6.70;99.90;;;;;;5072935;28;20504;-72
2022/01/28 00:05:05;;;;;;;11.43;2.63;;;6.60;99.90;;;;;;5073212;28;20431;-72
2022/01/28 00:07:33;;;;;;;9.30;3.03;;;6.60;99.90;;;;;;5073238;28;20464;-72
2022/01/28 00:10:00;;;;;;;10.73;2.70;;;6.60;99.90;;;;;;5073136;28;20484;-72
2022/01/28 00:12:28;;;;;;;12.60;2.60;;;6.60;99.90;;;;;;5072862;28;20429;-72
2022/01/28 00:15:04;;;;;;;13.93;2.60;;;6.50;99.90;;;;;;5072839;28;20477;-72
2022/01/28 00:18:14;;;;;;;10.30;2.70;;;6.50;99.90;;;;;;5073021;28;20470;-72
2022/01/28 00:21:08;;;;;;;12.70;3.10;;;6.50;99.90;;;;;;5072598;28;20599;-72
2022/01/28 00:37:37;;;;;;;10.50;2.90;;;6.40;99.90;;;;;;5072893;28;20806;-72
2022/01/28 00:40:06;;;;;;;6.30;2.17;;;6.40;99.90;;;;;;5073519;28;20437;-71
2022/01/28 00:42:33;;;;;;;13.97;3.10;;;6.40;99.90;;;;;;5072440;28;21012;-72
2022/01/28 00:45:01;;;;;;;6.40;2.23;;;6.30;99.90;;;;;;5072766;28;20440;-72
2022/01/28 00:47:28;;;;;;;10.17;2.57;;;6.30;99.90;;;;;;5074176;28;20472;-72
2022/01/28 00:49:55;;;;;;;10.70;2.60;;;6.30;99.90;;;;;;5076397;28;20445;-72
2022/01/28 00:52:21;;;;;;;22.70;3.90;;;6.30;99.90;;;;;;5076347;28;20440;-72
2022/01/28 00:54:48;;;;;;;11.43;2.70;;;6.20;99.90;;;;;;5076285;28;20440;-72
2022/01/28 00:57:16;;;;;;;10.50;2.13;;;6.10;99.90;;;;;;5076230;28;20522;-73
2022/01/28 00:59:43;;;;;;;15.30;2.57;;;6.10;99.90;;;;;;5076195;28;20448;-73
2022/01/28 01:02:09;;;;;;;9.80;1.93;;;6.10;99.90;;;;;;5075787;28;20476;-72
2022/01/28 01:04:36;;;;;;;16.80;3.27;;;6.10;99.90;;;;;;5075682;28;20551;-72
2022/01/28 01:07:03;;;;;;;9.43;2.17;;;6.10;99.90;;;;;;5076043;28;20460;-72
2022/01/28 01:09:30;;;;;;;22.73;2.90;;;6.10;99.90;;;;;;5076100;28;20440;-72
2022/01/28 01:11:57;;;;;;;10.10;3.17;;;6.10;99.90;;;;;;5075971;28;20448;-72
2022/01/28 01:14:25;;;;;;;10.13;2.57;;;6.00;99.90;;;;;;5075956;28;20448;-72
2022/01/28 01:17:05;;;;;;;7.63;2.40;;;6.00;99.90;;;;;;5075817;28;20472;-72
2022/01/28 01:19:37;;;;;;;13.90;2.33;;;6.10;99.90;;;;;;5075969;28;20433;-73
2022/01/28 01:22:07;;;;;;;17.83;3.83;;;6.10;99.90;;;;;;5075796;28;20559;-72
2022/01/28 01:24:36;;;;;;;9.67;2.90;;;6.10;99.90;;;;;;5075840;28;20536;-72
2022/01/28 01:27:04;;;;;;;15.53;2.57;;;6.10;99.90;;;;;;5075691;28;20491;-72
2022/01/28 01:29:32;;;;;;;15.37;3.50;;;6.00;99.90;;;;;;5075729;28;20449;-72
2022/01/28 01:32:03;;;;;;;10.40;2.40;;;6.00;99.90;;;;;;5075686;28;20832;-72
2022/01/28 01:34:30;;;;;;;14.23;2.33;;;5.90;99.90;;;;;;5075891;28;20433;-72
2022/01/28 01:36:57;;;;;;;11.70;2.47;;;6.00;99.90;;;;;;5075482;28;20467;-72
2022/01/28 01:39:26;;;;;;;12.17;2.37;;;5.90;99.90;;;;;;5075554;28;20437;-72
2022/01/28 01:41:58;;;;;;;20.70;3.10;;;5.90;99.90;;;;;;5075783;28;20557;-72
2022/01/28 01:44:35;;;;;;;16.53;2.57;;;5.90;99.90;;;;;;5075576;28;20528;-72
2022/01/28 01:52:01;;;;;;;8.67;2.30;;;5.90;99.90;;;;;;5075372;28;20471;-73
2022/01/28 01:52:53;;;;;;;7.47;1.53;;;5.90;99.90;;;;;;5075035;28;20435;-72
2022/01/28 01:55:21;;;;;;;22.20;3.10;;;5.90;99.90;;;;;;5075217;28;20444;-72
2022/01/28 01:57:48;;;;;;;10.70;2.70;;;5.90;99.90;;;;;;5074873;28;20472;-71
2022/01/28 02:00:16;;;;;;;11.03;2.03;;;5.90;99.90;;;;;;5074560;28;20448;-71
2022/01/28 02:02:44;;;;;;;9.50;2.27;;;5.80;99.90;;;;;;5074863;28;20477;-72
2022/01/28 02:05:12;;;;;;;9.60;2.10;;;5.80;99.90;;;;;;5074740;28;20782;-73
2022/01/28 02:07:40;;;;;;;14.00;2.30;;;5.80;99.90;;;;;;5074827;28;20461;-72
2022/01/28 02:10:07;;;;;;;8.40;2.27;;;5.70;99.90;;;;;;5074933;28;20452;-72
2022/01/28 02:12:45;;;;;;;12.30;2.30;;;5.70;99.90;;;;;;5074836;28;20437;-72
2022/01/28 02:15:12;;;;;;;13.73;2.47;;;5.70;99.90;;;;;;5074828;28;20436;-72
2022/01/28 02:17:38;;;;;;;14.90;3.73;;;5.60;99.90;;;;;;5074391;28;20842;-72
2022/01/28 02:20:09;;;;;;;12.90;2.93;;;5.60;99.90;;;;;;5074697;28;20449;-72
2022/01/28 02:22:37;;;;;;;9.13;2.27;;;5.60;99.90;;;;;;5074299;28;20935;-72
2022/01/28 02:25:05;;;;;;;9.37;2.87;;;5.60;99.90;;;;;;5074587;28;20448;-72
2022/01/28 02:27:32;;;;;;;16.97;2.80;;;5.60;99.90;;;;;;5074465;28;20460;-72
2022/01/28 02:29:58;;;;;;;9.27;2.77;;;5.60;99.90;;;;;;5074464;28;20453;-72
2022/01/28 02:32:25;;;;;;;21.23;3.00;;;5.50;99.90;;;;;;5074093;28;20946;-72
2022/01/28 02:34:52;;;;;;;12.90;3.47;;;5.40;99.90;;;;;;5074372;28;20451;-72
2022/01/28 02:37:19;;;;;;;8.33;2.30;;;5.40;99.90;;;;;;5074231;28;20468;-72
2022/01/28 02:39:47;;;;;;;7.30;2.30;;;5.40;99.90;;;;;;5074012;28;20962;-73
2022/01/28 02:42:19;;;;;;;10.90;2.97;;;5.40;99.90;;;;;;5073900;28;20518;-72
2022/01/28 02:44:49;;;;;;;21.60;4.40;;;5.40;99.90;;;;;;5074806;28;20437;-71
2022/01/28 02:47:28;;;;;;;10.43;3.03;;;5.30;99.90;;;;;;5074098;28;20465;-72
2022/01/28 02:49:54;;;;;;;11.67;3.00;;;5.40;99.90;;;;;;5074127;28;20429;-72
2022/01/28 02:52:30;;;;;;;12.57;2.63;;;5.30;99.90;;;;;;5074092;28;20480;-72
2022/01/28 02:55:00;;;;;;;17.43;2.53;;;5.30;99.90;;;;;;5074121;28;20499;-72
2022/01/28 02:57:27;;;;;;;13.93;2.53;;;5.40;99.90;;;;;;5073642;28;20503;-71
2022/01/28 02:59:54;;;;;;;14.50;2.87;;;5.40;99.90;;;;;;5073646;28;20922;-72
2022/01/28 03:02:21;;;;;;;13.77;3.07;;;5.30;99.90;;;;;;5073492;28;20476;-72
2022/01/28 03:05:07;;;;;;;10.50;3.00;;;5.40;99.90;;;;;;5073470;28;20468;-72
2022/01/28 03:07:34;;;;;;;7.90;3.13;;;5.30;99.90;;;;;;5073870;28;20518;-72
2022/01/28 03:10:28;;;;;;;7.00;2.17;;;5.30;99.90;;;;;;5073696;28;20447;-72
2022/01/28 03:13:17;;;;;;;8.83;2.30;;;5.40;99.90;;;;;;5073816;28;20792;-72
2022/01/28 03:15:51;;;;;;;12.73;4.27;;;5.30;99.90;;;;;;5074431;28;20799;-72
2022/01/28 03:18:21;;;;;;;10.13;3.03;;;5.40;99.90;;;;;;5073762;28;20436;-72
2022/01/28 03:20:59;;;;;;;7.90;2.90;;;5.40;99.90;;;;;;5073714;28;20765;-72
2022/01/28 03:23:27;;;;;;;11.33;3.00;;;5.40;99.90;;;;;;5073684;28;20513;-72
2022/01/28 03:25:55;;;;;;;10.10;3.57;;;5.40;99.90;;;;;;5073564;28;20475;-72
2022/01/28 03:28:22;;;;;;;16.17;3.30;;;5.40;99.90;;;;;;5073308;28;20444;-72
2022/01/28 03:30:48;;;;;;;10.03;2.83;;;5.40;99.90;;;;;;5073602;28;20447;-72
2022/01/28 03:33:16;;;;;;;15.00;3.40;;;5.40;99.90;;;;;;5073538;28;20466;-72
2022/01/28 03:35:43;;;;;;;7.57;2.57;;;5.30;99.90;;;;;;5073419;28;20440;-72
2022/01/28 03:38:12;;;;;;;12.90;2.70;;;5.30;99.90;;;;;;5073503;28;20451;-72
2022/01/28 03:40:41;;;;;;;13.67;4.07;;;5.30;99.90;;;;;;5073136;28;21001;-72
2022/01/28 03:43:09;;;;;;;8.47;3.30;;;5.30;99.90;;;;;;5073363;28;20530;-72
2022/01/28 03:45:36;;;;;;;12.57;2.83;;;5.30;99.90;;;;;;5073346;28;20434;-72
2022/01/28 03:48:04;;;;;;;6.10;3.10;;;5.30;99.90;;;;;;5073404;28;20519;-72
2022/01/28 03:50:33;;;;;;;15.40;3.57;;;5.30;99.90;;;;;;5073349;28;20448;-72
2022/01/28 03:53:00;;;;;;;7.90;3.23;;;5.40;99.90;;;;;;5073053;28;20491;-72
2022/01/28 03:55:27;;;;;;;16.07;3.10;;;5.30;99.90;;;;;;5073044;28;20796;-72
2022/01/28 03:57:54;;;;;;;7.80;2.60;;;5.30;99.90;;;;;;5072921;28;20970;-72
2022/01/28 04:00:26;;;;;;;7.40;2.70;;;5.20;99.90;;;;;;5073249;28;20441;-72
2022/01/28 04:03:02;;;;;;;14.40;3.30;;;5.10;99.90;;;;;;5072735;28;20493;-72
2022/01/28 04:13:47;;;;;;;14.00;2.80;;;5.10;99.90;;;;;;5073267;28;20409;-72
2022/01/28 04:16:31;;;;;;;14.67;2.87;;;5.10;99.90;;;;;;5073056;28;20472;-72
2022/01/28 04:19:01;;;;;;;11.07;4.07;;;5.10;99.90;;;;;;5073188;28;20515;-72
2022/01/28 04:21:28;;;;;;;11.17;3.03;;;5.10;99.90;;;;;;5074403;28;20445;-72
2022/01/28 04:23:54;;;;;;;14.37;3.93;;;5.10;99.90;;;;;;5076881;28;20522;-72
2022/01/28 04:26:21;;;;;;;20.43;3.73;;;5.20;99.90;;;;;;5076848;28;20475;-72
2022/01/28 04:28:48;;;;;;;9.23;3.03;;;5.20;99.90;;;;;;5076559;28;20940;-72
2022/01/28 04:31:16;;;;;;;11.13;3.00;;;5.20;99.90;;;;;;5076456;28;20862;-72
2022/01/28 04:33:43;;;;;;;10.20;2.90;;;5.20;99.90;;;;;;5076385;28;20437;-72
2022/01/28 04:36:12;;;;;;;11.93;3.13;;;5.20;99.90;;;;;;5076626;28;20475;-72
2022/01/28 04:38:46;;;;;;;12.23;2.40;;;5.20;99.90;;;;;;5076651;28;20456;-72
2022/01/28 04:41:19;;;;;;;11.83;3.10;;;5.20;99.90;;;;;;5076650;28;20435;-72
2022/01/28 04:43:51;;;;;;;13.97;2.60;;;5.20;99.90;;;;;;5076504;28;20476;-72
2022/01/28 04:46:29;;;;;;;9.20;2.90;;;5.20;99.90;;;;;;5076131;28;21079;-73
2022/01/28 04:49:02;;;;;;;11.47;3.10;;;5.20;99.90;;;;;;5076502;28;20433;-72
2022/01/28 04:51:46;;;;;;;7.17;2.70;;;5.20;99.90;;;;;;5076166;28;20444;-72
2022/01/28 04:54:34;;;;;;;11.10;2.77;;;5.20;99.90;;;;;;5076403;28;20464;-72
2022/01/28 04:57:07;;;;;;;6.90;3.03;;;5.20;99.90;;;;;;5075780;28;20460;-72
2022/01/28 04:59:46;;;;;;;9.20;2.80;;;5.20;99.90;;;;;;5076376;28;20465;-72
2022/01/28 05:02:31;;;;;;;13.33;3.10;;;5.10;99.90;;;;;;5076308;28;20466;-72
2022/01/28 05:05:38;;;;;;;7.00;3.17;;;5.10;99.90;;;;;;5076202;28;20424;-72
2022/01/28 05:14:02;;;;;;;11.40;3.63;;;5.00;99.90;;;;;;5040485;28;20474;-72
2022/01/28 05:16:54;;;;;;;14.17;2.90;;;5.10;99.90;;;;;;5076088;28;20488;-73
2022/01/28 05:25:22;;;;;;;11.07;3.00;;;5.10;99.90;;;;;;5075882;28;20463;-72
2022/01/28 05:27:49;;;;;;;13.30;2.50;;;5.10;99.90;;;;;;5075313;28;20550;-72
2022/01/28 05:30:16;;;;;;;9.67;2.70;;;5.10;99.90;;;;;;5075288;28;20449;-72
2022/01/28 05:32:43;;;;;;;14.70;4.97;;;5.00;99.90;;;;;;5075040;28;20440;-72
2022/01/28 05:35:11;;;;;;;12.37;2.97;;;5.00;99.90;;;;;;5074947;28;20464;-72
2022/01/28 05:37:38;;;;;;;8.60;3.10;;;5.00;99.90;;;;;;5075472;28;20472;-72
2022/01/28 05:40:06;;;;;;;12.53;2.63;;;5.00;99.90;;;;;;5075543;28;20445;-72
2022/01/28 05:42:33;;;;;;;10.23;2.90;;;5.00;99.90;;;;;;5075347;28;20428;-72
2022/01/28 05:45:00;;;;;;;9.97;4.13;;;4.90;99.90;;;;;;5075338;28;20499;-72
2022/01/28 05:47:27;;;;;;;13.57;3.50;;;4.90;99.90;;;;;;5075293;28;20465;-72
2022/01/28 05:49:54;;;;;;;11.30;3.53;;;4.90;99.90;;;;;;5075405;28;20451;-72
2022/01/28 05:52:22;;;;;;;10.07;3.00;;;4.80;99.90;;;;;;5075305;28;20441;-72
2022/01/28 05:54:49;;;;;;;7.47;2.60;;;4.90;99.90;;;;;;5075291;28;20513;-72
2022/01/28 05:57:15;;;;;;;21.00;3.53;;;4.90;99.90;;;;;;5075095;28;20461;-72
2022/01/28 05:59:42;;;;;;;9.87;2.30;;;4.90;99.90;;;;;;5074815;28;20867;-72
2022/01/28 06:02:09;;;;;;;13.93;3.30;;;4.90;99.90;;;;;;5075676;28;20428;-72
2022/01/28 06:04:37;;;;;;;7.00;2.43;;;4.90;99.90;;;;;;5074566;28;20481;-72
2022/01/28 06:07:04;;;;;;;13.60;4.13;;;4.90;99.90;;;;;;5074944;28;20465;-72
2022/01/28 06:09:32;;;;;;;11.93;3.23;;;4.90;99.90;;;;;;5074902;28;20437;-72
2022/01/28 06:11:59;;;;;;;14.53;3.47;;;5.00;99.90;;;;;;5074887;28;20448;-72
2022/01/28 06:14:25;;;;;;;14.83;3.47;;;5.00;99.90;;;;;;5074889;28;20421;-72
2022/01/28 06:16:52;;;;;;;18.93;4.47;;;4.90;99.90;;;;;;5074391;28;20472;-73
2022/01/28 06:19:19;;;;;;;13.63;2.97;;;4.90;99.90;;;;;;5074736;28;20448;-72
2022/01/28 06:21:45;;;;;;;13.43;4.83;;;4.90;99.90;;;;;;5074698;28;20446;-73
2022/01/28 06:24:12;;;;;;;17.50;3.00;;;4.90;99.90;;;;;;5074550;28;20484;-73
2022/01/28 06:26:41;;;;;;;7.67;3.47;;;4.90;99.90;;;;;;5074495;28;20510;-72
2022/01/28 06:29:08;;;;;;;8.20;4.03;;;4.90;99.90;;;;;;5074545;28;20451;-72
2022/01/28 06:31:35;;;;;;;15.33;3.30;;;4.90;99.90;;;;;;5075030;28;20540;-72
2022/01/28 06:34:01;;;;;;;13.60;3.60;;;4.80;99.90;;;;;;5074481;28;20417;-72
2022/01/28 06:36:28;;;;;;;13.23;3.90;;;4.90;99.90;;;;;;5074255;28;20464;-72
2022/01/28 06:38:55;;;;;;;20.80;3.93;;;4.80;99.90;;;;;;5074341;28;20440;-72
2022/01/28 06:41:21;;;;;;;18.23;4.10;;;4.80;99.90;;;;;;5074268;28;20441;-72
2022/01/28 06:43:50;;;;;;;12.00;3.77;;;4.80;99.90;;;;;;5074180;28;20477;-73
2022/01/28 06:46:16;;;;;;;11.07;4.00;;;4.70;99.90;;;;;;5073798;28;20539;-72
2022/01/28 06:48:43;;;;;;;15.30;4.17;;;4.70;99.90;;;;;;5074106;28;20820;-72
2022/01/28 06:51:10;;;;;;;14.37;4.27;;;4.60;99.90;;;;;;5073820;28;20934;-72
2022/01/28 06:53:36;;;;;;;7.13;3.90;;;4.60;99.90;;;;;;5074051;28;20433;-72
2022/01/28 06:56:03;;;;;;;8.70;4.30;;;4.60;99.90;;;;;;5073974;28;20464;-72
2022/01/28 06:58:30;;;;;;;18.43;5.53;;;4.70;99.90;;;;;;5073995;28;20445;-72
2022/01/28 07:00:58;;;;;;;13.10;5.00;;;4.70;99.90;;;;;;5073960;28;20440;-72
2022/01/28 07:03:25;;;;;;;13.13;3.47;;;4.70;99.90;;;;;;5073491;28;20495;-72
2022/01/28 07:05:51;;;;;;;11.47;4.20;;;4.70;99.90;;;;;;5073778;28;20494;-73
2022/01/28 07:08:18;;;;;;;12.77;4.70;;;4.70;99.90;;;;;;5073892;28;20448;-73
2022/01/28 07:10:45;;;;;;;14.90;4.60;;;4.80;99.90;;;;;;5073829;28;20449;-73
2022/01/28 07:13:13;;;;;;;10.23;4.90;;;4.70;99.90;;;;;;5073733;28;20441;-73
2022/01/28 07:15:40;;;;;;;11.67;4.20;;;4.70;99.90;;;;;;5073666;28;20435;-73
2022/01/28 07:18:08;;;;;;;9.67;4.40;;;4.70;99.90;;;;;;5073423;28;20957;-73
2022/01/28 07:20:35;;;;;;;10.67;4.00;;;4.70;99.90;;;;;;5073667;28;20444;-73
2022/01/28 07:23:02;;;;;;;6.73;4.20;;;4.70;99.90;;;;;;5073748;28;20447;-73
2022/01/28 07:25:29;;;;;;;15.37;5.40;;;4.80;99.90;;;;;;5073702;28;20484;-72
2022/01/28 07:27:56;;;;;;;13.80;5.00;;;4.80;99.90;;;;;;5073489;28;20465;-73
2022/01/28 07:30:23;;;;;;;7.20;4.43;;;4.80;99.90;;;;;;5073245;28;20914;-73
2022/01/28 07:32:51;;;;;;;14.87;5.07;;;4.80;99.90;;;;;;5073311;28;20453;-73
2022/01/28 07:35:19;;;;;;;9.27;4.93;;;4.80;99.90;;;;;;5073480;28;20440;-73
2022/01/28 07:37:46;;;;;;;13.27;6.30;;;4.70;99.90;;;;;;5073533;28;20461;-73
2022/01/28 07:40:14;;;;;;;17.27;6.63;;;4.70;99.90;;;;;;5073424;28;20428;-73
2022/01/28 07:42:41;;;;;;;15.80;6.83;;;4.70;99.90;;;;;;5073074;28;20495;-73
2022/01/28 07:45:10;;;;;;;24.53;9.53;;;4.70;99.90;;;;;;5073294;28;20477;-73
2022/01/28 07:47:37;;;;;;;17.27;6.83;;;4.60;99.90;;;;;;5073270;28;20468;-73
2022/01/28 07:50:04;;;;;;;18.20;7.80;;;4.60;99.90;;;;;;5073014;28;21004;-73
2022/01/28 07:52:32;;;;;;;20.73;8.03;;;4.50;99.90;;;;;;5073336;28;20432;-73
2022/01/28 07:54:59;;;;;;;22.73;8.83;;;4.60;99.90;;;;;;5073281;28;20448;-73
2022/01/28 07:57:25;;;;;;;20.53;8.50;;;4.60;99.90;;;;;;5075215;28;20468;-77
2022/01/28 07:59:52;;;;;;;16.13;9.20;;;4.70;99.90;;;;;;5077149;28;20942;-73
2022/01/28 08:02:19;;;;;;;15.00;8.30;;;4.60;99.90;;;;;;5077352;28;20455;-73
2022/01/28 08:04:45;;;;;;;19.93;8.97;;;4.70;99.90;;;;;;5076878;28;20507;-73
2022/01/28 08:07:12;;;;;;;21.20;9.50;;;4.70;99.90;;;;;;5077281;28;20472;-72
2022/01/28 08:09:41;;;;;;;23.57;9.57;;;4.70;99.90;;;;;;5077251;28;20444;-73
2022/01/28 08:12:08;;;;;;;16.70;9.63;;;4.70;99.90;;;;;;5077267;28;20444;-73
2022/01/28 08:14:35;;;;;;;18.70;10.17;;;4.80;99.90;;;;;;5077154;28;20432;-73
2022/01/28 08:17:02;;;;;;;18.77;9.80;;;4.90;99.90;;;;;;5076993;28;20464;-73
2022/01/28 08:19:28;;;;;;;16.33;9.37;;;4.90;99.90;;;;;;5077025;28;20856;-72
2022/01/28 08:21:55;;;;;;;21.17;9.50;;;5.00;99.90;;;;;;5077019;28;20479;-73
2022/01/28 08:24:22;;;;;;;14.87;9.37;;;5.00;99.90;;;;;;5076850;28;20525;-73
2022/01/28 08:26:50;;;;;;;18.63;9.90;;;5.10;99.90;;;;;;5076824;28;20835;-73
2022/01/28 08:29:17;;;;;;;25.60;10.97;;;5.20;99.90;;;;;;5077259;28;20448;-73
2022/01/28 08:31:44;;;;;;;21.30;10.13;;;5.20;99.90;;;;;;5076876;28;20445;-73
2022/01/28 08:34:11;;;;;;;16.77;10.40;;;5.20;99.90;;;;;;5076742;28;20444;-72
2022/01/28 08:36:37;;;;;;;22.70;9.63;;;5.30;99.90;;;;;;5077231;28;20824;-73
2022/01/28 08:39:06;;;;;;;19.93;10.77;;;5.40;99.90;;;;;;5076734;28;20460;-73
2022/01/28 08:41:34;;;;;;;17.73;10.00;;;5.40;99.90;;;;;;5076666;28;20447;-73
2022/01/28 08:44:03;;;;;;;23.70;10.37;;;5.40;99.90;;;;;;5076588;28;20476;-73
2022/01/28 08:46:30;;;;;;;19.00;10.63;;;5.50;99.90;;;;;;5076516;28;20472;-73
2022/01/28 08:48:57;;;;;;;19.63;11.23;;;5.60;99.90;;;;;;5076449;28;20444;-73
2022/01/28 08:51:23;;;;;;;19.87;11.27;;;5.60;99.90;;;;;;5076529;28;20440;-72
2022/01/28 08:53:50;;;;;;;15.50;9.93;;;5.60;99.90;;;;;;5076045;28;20885;-72
2022/01/28 08:56:17;;;;;;;17.53;9.43;;;5.60;99.90;;;;;;5075939;28;20985;-73
2022/01/28 08:58:43;;;;;;;17.63;10.50;;;5.70;99.90;;;;;;5076333;28;20448;-72
2022/01/28 09:01:12;;;;;;;20.67;10.30;;;5.70;99.90;;;;;;5076352;28;20429;-72
2022/01/28 09:03:38;;;;;;;20.50;11.43;;;5.60;99.90;;;;;;5075915;28;20582;-73
2022/01/28 09:06:05;;;;;;;21.30;11.20;;;5.50;99.90;;;;;;5076337;28;20487;-72
2022/01/28 09:08:32;;;;;;;24.50;11.33;;;5.50;99.90;;;;;;5075770;28;20448;-72
2022/01/28 09:11:08;;;;;;;19.63;10.43;;;5.50;99.90;;;;;;5076065;28;20441;-73
2022/01/28 09:13:38;;;;;;;24.00;11.17;;;5.50;99.90;;;;;;5076923;28;20510;-73
2022/01/28 09:16:05;;;;;;;18.40;13.20;;;5.60;99.90;;;;;;5075950;28;20510;-73
2022/01/28 09:18:33;;;;;;;20.67;11.97;;;5.60;99.90;;;;;;5075967;28;20448;-73
2022/01/28 09:21:00;;;;;;;28.73;12.00;;;5.70;99.90;;;;;;5075936;28;20448;-73
2022/01/28 09:23:27;;;;;;;24.87;13.27;;;5.70;99.90;;;;;;5075838;28;20448;-73
2022/01/28 09:25:53;;;;;;;21.20;13.17;;;5.70;99.90;;;;;;5075716;28;20465;-73
2022/01/28 09:28:20;;;;;;;22.67;11.80;;;5.80;99.90;;;;;;5075731;28;20455;-73
2022/01/28 09:30:47;;;;;;;22.63;12.20;;;5.90;99.90;;;;;;5075443;28;20441;-73
2022/01/28 09:33:14;;;;;;;21.80;11.93;;;5.90;99.90;;;;;;5075693;28;20447;-72
2022/01/28 09:35:42;;;;;;;19.00;11.10;;;6.00;99.90;;;;;;5075548;28;20460;-73
2022/01/28 09:38:10;;;;;;;18.80;11.07;;;6.10;99.90;;;;;;5075225;28;20474;-73
2022/01/28 09:40:37;;;;;;;20.87;10.77;;;6.10;99.90;;;;;;5075245;28;20957;-73
2022/01/28 09:43:05;;;;;;;21.53;11.00;;;6.20;99.90;;;;;;5075211;28;20891;-73
2022/01/28 09:45:32;;;;;;;21.03;10.43;;;6.20;99.90;;;;;;5075381;28;20480;-73
2022/01/28 09:48:00;;;;;;;15.20;10.30;;;6.30;99.90;;;;;;5075338;28;21002;-72
2022/01/28 09:50:28;;;;;;;15.63;10.53;;;6.30;99.90;;;;;;5075422;28;20484;-73
2022/01/28 09:52:58;;;;;;;19.67;9.40;;;6.40;99.90;;;;;;5075033;28;20917;-73
2022/01/28 09:55:26;;;;;;;16.87;9.70;;;6.50;99.90;;;;;;5075041;28;20452;-73
2022/01/28 09:57:57;;;;;;;13.07;7.70;;;6.60;99.90;;;;;;5075175;28;20465;-73
2022/01/28 10:00:25;;;;;;;15.00;8.27;;;6.70;99.90;;;;;;5075432;28;20784;-72
2022/01/28 10:02:54;;;;;;;19.70;8.50;;;6.80;99.90;;;;;;5074857;28;20464;-73
2022/01/28 10:05:25;;;;;;;16.20;7.10;;;6.90;99.90;;;;;;5074939;28;20828;-73
2022/01/28 10:08:05;;;;;;;19.93;8.60;;;6.90;99.90;;;;;;5074954;28;20556;-73
2022/01/28 10:10:43;;;;;;;12.10;7.30;;;7.00;99.90;;;;;;5075202;28;20519;-73
2022/01/28 10:13:13;;;;;;;22.47;8.70;;;7.20;99.90;;;;;;5074883;28;20444;-73
2022/01/28 10:15:53;;;;;;;15.57;8.47;;;7.30;99.90;;;;;;5074887;28;20535;-73
2022/01/28 10:18:20;;;;;;;10.60;6.40;;;7.40;99.90;;;;;;5074814;28;20436;-73
2022/01/28 10:20:46;;;;;;;14.20;8.10;;;7.40;99.90;;;;;;5074883;28;20518;-73
2022/01/28 10:23:15;;;;;;;18.20;7.70;;;7.50;99.90;;;;;;5074690;28;20441;-73
2022/01/28 10:25:42;;;;;;;19.90;8.63;;;7.50;99.90;;;;;;5074515;28;20457;-73
2022/01/28 10:28:11;;;;;;;15.63;7.80;;;7.50;99.90;;;;;;5074527;28;20444;-72
2022/01/28 10:30:40;;;;;;;16.87;8.70;;;7.60;99.90;;;;;;5074590;28;20988;-72
2022/01/28 10:33:14;;;;;;;20.33;8.00;;;7.60;99.90;;;;;;5074189;28;21040;-72
2022/01/28 10:35:50;;;;;;;20.13;9.60;;;7.70;99.90;;;;;;5074487;28;20511;-72
2022/01/28 10:38:33;;;;;;;13.17;7.60;;;7.80;99.90;;;;;;5074518;28;20789;-72
2022/01/28 10:41:10;;;;;;;13.20;7.20;;;8.00;99.90;;;;;;5074396;28;20530;-72
2022/01/28 10:43:45;;;;;;;12.70;7.27;;;8.10;99.90;;;;;;5073986;28;20930;-72
2022/01/28 10:46:12;;;;;;;14.67;8.23;;;8.20;99.90;;;;;;5074044;28;20492;-72
2022/01/28 10:49:01;;;;;;;18.37;8.80;;;8.20;99.90;;;;;;5073922;28;20437;-72
2022/01/28 10:51:39;;;;;;;20.10;8.23;;;8.10;99.90;;;;;;5069040;28;20460;-72
2022/01/28 10:54:09;;;;;;;25.10;7.60;;;8.10;99.90;;;;;;5073792;28;20424;-72
2022/01/28 10:56:54;;;;;;;14.60;8.00;;;8.10;99.90;;;;;;5073988;28;20452;-72
2022/01/28 10:59:23;;;;;;;13.37;7.57;;;8.20;99.90;;;;;;5074165;28;20425;-72
2022/01/28 11:01:50;;;;;;;17.90;7.60;;;8.30;99.90;;;;;;5074001;28;20510;-72
2022/01/28 11:04:19;;;;;;;16.20;7.27;;;8.30;99.90;;;;;;5073617;28;20496;-72
2022/01/28 11:06:47;;;;;;;16.50;7.17;;;8.30;99.90;;;;;;5073577;28;20996;-73
2022/01/28 11:09:17;;;;;;;12.60;6.90;;;8.30;99.90;;;;;;5073965;28;20444;-72
2022/01/28 11:11:45;;;;;;;12.50;7.23;;;8.40;99.90;;;;;;5073854;28;20456;-72
2022/01/28 11:14:12;;;;;;;18.17;7.37;;;8.60;99.90;;;;;;5073799;28;20463;-72
2022/01/28 11:16:39;;;;;;;16.77;6.90;;;8.80;99.90;;;;;;5073633;28;20521;-72
2022/01/28 11:19:09;;;;;;;18.67;7.40;;;8.90;99.90;;;;;;5073387;28;20449;-72
2022/01/28 11:22:00;;;;;;;12.67;7.23;;;9.00;99.90;;;;;;5073612;28;20467;-72
2022/01/28 11:24:46;;;;;;;13.17;7.67;;;9.00;99.90;;;;;;5071123;28;20457;-72
2022/01/28 11:27:18;;;;;;;12.47;7.70;;;8.80;99.90;;;;;;5073561;28;20494;-72
2022/01/28 11:29:45;;;;;;;19.00;7.60;;;8.70;99.90;;;;;;5073561;28;20463;-72
2022/01/28 11:32:15;;;;;;;14.10;7.60;;;8.60;99.90;;;;;;5073474;28;20448;-72
2022/01/28 11:34:57;;;;;;;15.70;6.80;;;8.70;99.90;;;;;;5073544;28;20445;-72
2022/01/28 11:37:30;;;;;;;10.00;5.83;;;9.10;99.90;;;;;;5073553;28;20501;-72
2022/01/28 11:40:10;;;;;;;13.03;7.03;;;9.50;99.90;;;;;;5073512;28;20471;-72
2022/01/28 11:42:37;;;;;;;13.70;6.60;;;10.00;98.40;;;;;;5073481;28;20486;-72
2022/01/28 11:45:06;;;;;;;17.43;7.57;;;10.40;97.90;;;;;;5073330;28;20503;-72
2022/01/28 11:47:35;;;;;;;17.77;6.70;;;10.60;96.00;;;;;;5073359;28;20820;-73
2022/01/28 11:50:07;;;;;;;9.60;5.60;;;10.80;95.60;;;;;;5073427;28;20445;-73
2022/01/28 11:52:38;;;;;;;11.60;5.10;;;11.20;94.40;;;;;;5073389;28;20439;-72
2022/01/28 11:55:32;;;;;;;12.50;6.40;;;11.50;92.60;;;;;;5073082;28;20914;-73
2022/01/28 11:58:01;;;;;;;12.43;5.73;;;11.60;91.30;;;;;;5073193;28;20887;-73
2022/01/28 12:00:31;;;;;;;13.13;5.00;;;11.40;90.40;;;;;;5073429;28;20822;-73
2022/01/28 12:03:00;;;;;;;9.43;4.27;;;11.40;90.20;;;;;;5073030;28;20456;-72
2022/01/28 12:05:46;;;;;;;9.53;4.67;;;11.50;87.50;;;;;;5073161;28;20484;-72
2022/01/28 12:08:14;;;;;;;13.33;4.50;;;11.40;86.70;;;;;;5073262;28;20436;-73
2022/01/28 12:10:45;;;;;;;9.83;3.73;;;11.70;86.40;;;;;;5073302;28;20426;-73
2022/01/28 12:13:16;;;;;;;9.10;3.03;;;11.80;85.10;;;;;;5073157;28;20482;-73
2022/01/28 12:16:09;;;;;;;7.87;3.67;;;12.00;83.80;;;;;;5073107;28;20417;-73
2022/01/28 12:18:53;;;;;;;10.20;3.30;;;12.40;83.30;;;;;;5072882;28;20895;-73
2022/01/28 12:21:22;;;;;;;9.03;3.63;;;12.30;80.10;;;;;;5073136;28;20429;-73
2022/01/28 12:23:50;;;;;;;12.53;3.50;;;12.10;80.60;;;;;;5073091;28;20448;-73
2022/01/28 12:26:19;;;;;;;11.77;4.00;;;12.00;80.00;;;;;;5072937;28;20491;-73
2022/01/28 12:29:02;;;;;;;13.23;4.20;;;12.10;81.10;;;;;;5072966;28;20816;-73
2022/01/28 12:31:31;;;;;;;7.57;3.63;;;11.90;81.30;;;;;;5072694;28;20799;-73
2022/01/28 12:34:03;;;;;;;11.83;4.13;;;11.60;81.30;;;;;;5072999;28;20501;-73
2022/01/28 12:36:33;;;;;;;11.53;4.33;;;11.70;83.80;;;;;;5072944;28;20503;-73
2022/01/28 12:39:09;;;;;;;9.57;4.10;;;12.00;83.40;;;;;;5072693;28;20820;-73
2022/01/28 12:41:50;;;;;;;8.87;4.07;;;12.50;81.30;;;;;;5072718;28;20428;-73
2022/01/28 12:44:17;;;;;;;9.80;4.10;;;12.90;77.80;;;;;;5075993;28;20435;-73
2022/01/28 12:46:49;;;;;;;8.53;3.83;;;13.40;75.30;;;;;;5076484;28;20480;-73
2022/01/28 12:49:17;;;;;;;10.07;2.63;;;13.90;72.50;;;;;;5076252;28;20895;-73
2022/01/28 12:51:44;;;;;;;7.50;2.77;;;14.20;66.80;;;;;;5076511;28;20452;-73
2022/01/28 12:54:11;;;;;;;8.03;3.50;;;14.30;65.00;;;;;;5076517;28;20444;-73
2022/01/28 12:56:43;;;;;;;8.47;2.57;;;14.40;63.50;;;;;;5076073;28;20868;-73
2022/01/28 12:59:11;;;;;;;10.63;2.00;;;14.40;61.00;;;;;;5076075;28;20891;-73
2022/01/28 13:01:38;;;;;;;6.20;2.20;;;14.30;61.50;;;;;;5077597;28;20480;-72
2022/01/28 13:04:09;;;;;;;4.03;2.40;;;14.30;63.00;;;;;;5075888;28;20468;-72
2022/01/28 13:06:59;;;;;;;8.87;2.60;;;14.00;61.20;;;;;;5076321;28;21047;-73
2022/01/28 13:09:26;;;;;;;9.83;2.70;;;13.90;61.60;;;;;;5076167;28;20805;-73
2022/01/28 13:12:06;;;;;;;14.13;3.57;;;13.90;62.80;;;;;;5077688;28;20471;-73
2022/01/28 13:14:34;;;;;;;5.87;2.33;;;13.80;61.30;;;;;;5076343;28;20429;-74
2022/01/28 13:17:03;;;;;;;6.60;2.30;;;13.50;62.40;;;;;;5075585;28;20974;-74
2022/01/28 13:19:30;;;;;;;8.63;2.70;;;13.30;63.80;;;;;;5075720;28;20949;-75
2022/01/28 13:21:57;;;;;;;13.50;2.93;;;13.20;65.50;;;;;;5076062;28;20444;-75
2022/01/28 13:24:25;;;;;;;12.27;3.73;;;13.10;66.80;;;;;;5076032;28;20436;-75
2022/01/28 13:26:59;;;;;;;11.40;3.97;;;12.90;67.30;;;;;;5075782;28;20505;-75
2022/01/28 13:29:32;;;;;;;8.50;3.07;;;12.50;70.20;;;;;;5075849;28;20432;-75
2022/01/28 13:32:00;;;;;;;8.93;2.83;;;12.20;71.50;;;;;;5075754;28;20523;-75
2022/01/28 13:34:27;;;;;;;7.60;3.47;;;11.90;74.10;;;;;;5075765;28;20445;-74
2022/01/28 13:36:57;;;;;;;11.10;3.90;;;11.80;76.80;;;;;;5075683;28;20460;-74
2022/01/28 13:39:27;;;;;;;13.73;5.40;;;11.90;77.10;;;;;;5076966;28;20433;-74